sensor_id;sensor_type;location;lat;lon;timestamp;temperature;humidity
54930;DHT22;40833;53.238;6.576;2022-11-15T00:01:52;8.30;99.90
54930;DHT22;40833;53.238;6.576;2022-11-15T00:04:17;7.50;99.90
54930;DHT22;40833;53.238;6.576;2022-11-15T00:06:43;7.50;99.90
54930;DHT22;40833;53.238;6.576;2022-11-15T00:09:09;7.50;99.90
54930;DHT22;40833;53.238;6.576;2022-11-15T00:11:34;7.50;99.90
54930;DHT22;40833;53.238;6.576;2022-11-15T00:14:00;7.40;99.90
54930;DHT22;40833;53.238;6.576;2022-11-15T00:16:28;9.70;99.90
54930;DHT22;40833;53.238;6.576;2022-11-15T00:18:53;7.40;99.90
54930;DHT22;40833;53.238;6.576;2022-11-15T00:21:19;7.20;99.90
54930;DHT22;40833;53.238;6.576;2022-11-15T00:23:45;8.60;99.90
54930;DHT22;40833;53.238;6.576;2022-11-15T00:26:14;7.00;99.90
54930;DHT22;40833;53.238;6.576;2022-11-15T00:28:41;6.90;99.90
54930;DHT22;40833;53.238;6.576;2022-11-15T00:31:10;6.80;99.90
54930;DHT22;40833;53.238;6.576;2022-11-15T00:33:36;7.40;99.90
54930;DHT22;40833;53.238;6.576;2022-11-15T00:36:06;9.30;99.90
54930;DHT22;40833;53.238;6.576;2022-11-15T00:38:37;6.50;99.90
54930;DHT22;40833;53.238;6.576;2022-11-15T00:41:04;6.40;99.90
54930;DHT22;40833;53.238;6.576;2022-11-15T00:43:30;6.40;99.90
54930;DHT22;40833;53.238;6.576;2022-11-15T00:45:56;6.30;99.90
54930;DHT22;40833;53.238;6.576;2022-11-15T00:48:22;8.80;99.90
54930;DHT22;40833;53.238;6.576;2022-11-15T00:50:48;6.60;99.90
54930;DHT22;40833;53.238;6.576;2022-11-15T00:53:14;6.40;99.90
54930;DHT22;40833;53.238;6.576;2022-11-15T00:55:40;9.30;99.90
54930;DHT22;40833;53.238;6.576;2022-11-15T00:58:06;6.50;99.90
54930;DHT22;40833;53.238;6.576;2022-11-15T01:00:32;6.60;99.90
54930;DHT22;40833;53.238;6.576;2022-11-15T01:02:57;7.20;99.90
54930;DHT22;40833;53.238;6.576;2022-11-15T01:05:23;9.50;99.90
54930;DHT22;40833;53.238;6.576;2022-11-15T01:07:53;6.70;99.90
54930;DHT22;40833;53.238;6.576;2022-11-15T01:10:19;6.80;99.90
54930;DHT22;40833;53.238;6.576;2022-11-15T01:12:44;7.30;99.90
54930;DHT22;40833;53.238;6.576;2022-11-15T01:15:10;6.70;99.90
54930;DHT22;40833;53.238;6.576;2022-11-15T01:17:36;6.70;99.90
54930;DHT22;40833;53.238;6.576;2022-11-15T01:20:02;6.90;99.90
54930;DHT22;40833;53.238;6.576;2022-11-15T01:22:27;6.70;99.90
54930;DHT22;40833;53.238;6.576;2022-11-15T01:24:53;7.00;99.90
54930;DHT22;40833;53.238;6.576;2022-11-15T01:27:19;7.30;99.90
54930;DHT22;40833;53.238;6.576;2022-11-15T01:29:44;6.70;99.90
54930;DHT22;40833;53.238;6.576;2022-11-15T01:32:10;7.60;99.90
54930;DHT22;40833;53.238;6.576;2022-11-15T01:34:35;6.60;99.90
54930;DHT22;40833;53.238;6.576;2022-11-15T01:37:01;6.70;99.90
54930;DHT22;40833;53.238;6.576;2022-11-15T01:39:27;7.90;99.90
54930;DHT22;40833;53.238;6.576;2022-11-15T01:41:53;6.60;99.90
54930;DHT22;40833;53.238;6.576;2022-11-15T01:44:46;6.70;99.90
54930;DHT22;40833;53.238;6.576;2022-11-15T01:47:19;6.80;99.90
54930;DHT22;40833;53.238;6.576;2022-11-15T01:52:21;6.90;99.90
54930;DHT22;40833;53.238;6.576;2022-11-15T01:54:50;7.90;99.90
54930;DHT22;40833;53.238;6.576;2022-11-15T01:57:18;7.00;99.90
54930;DHT22;40833;53.238;6.576;2022-11-15T01:59:44;7.00;99.90
54930;DHT22;40833;53.238;6.576;2022-11-15T02:02:11;7.20;99.90
54930;DHT22;40833;53.238;6.576;2022-11-15T02:04:41;9.40;99.90
54930;DHT22;40833;53.238;6.576;2022-11-15T02:07:09;7.00;99.90
54930;DHT22;40833;53.238;6.576;2022-11-15T02:09:36;7.00;99.90
54930;DHT22;40833;53.238;6.576;2022-11-15T02:12:02;7.80;99.90
54930;DHT22;40833;53.238;6.576;2022-11-15T02:14:30;7.10;99.90
54930;DHT22;40833;53.238;6.576;2022-11-15T02:20:05;7.10;99.90
54930;DHT22;40833;53.238;6.576;2022-11-15T02:22:41;7.10;99.90
54930;DHT22;40833;53.238;6.576;2022-11-15T02:31:00;7.10;99.90
54930;DHT22;40833;53.238;6.576;2022-11-15T02:33:35;7.10;99.90
54930;DHT22;40833;53.238;6.576;2022-11-15T02:36:07;7.20;99.90
54930;DHT22;40833;53.238;6.576;2022-11-15T02:38:52;7.10;99.90
54930;DHT22;40833;53.238;6.576;2022-11-15T02:41:25;7.10;99.90
54930;DHT22;40833;53.238;6.576;2022-11-15T02:44:01;8.30;99.90
54930;DHT22;40833;53.238;6.576;2022-11-15T02:46:35;7.20;99.90
54930;DHT22;40833;53.238;6.576;2022-11-15T02:49:21;7.20;99.90
54930;DHT22;40833;53.238;6.576;2022-11-15T02:51:49;7.20;99.90
54930;DHT22;40833;53.238;6.576;2022-11-15T02:54:23;7.40;99.90
54930;DHT22;40833;53.238;6.576;2022-11-15T02:56:53;7.20;99.90
54930;DHT22;40833;53.238;6.576;2022-11-15T03:04:58;9.20;99.90
54930;DHT22;40833;53.238;6.576;2022-11-15T03:07:43;7.20;99.90
54930;DHT22;40833;53.238;6.576;2022-11-15T03:10:21;7.70;99.90
54930;DHT22;40833;53.238;6.576;2022-11-15T03:13:04;7.20;99.90
54930;DHT22;40833;53.238;6.576;2022-11-15T03:15:40;7.20;99.90
54930;DHT22;40833;53.238;6.576;2022-11-15T03:18:13;7.60;99.90
54930;DHT22;40833;53.238;6.576;2022-11-15T03:20:40;8.80;99.90
54930;DHT22;40833;53.238;6.576;2022-11-15T03:23:10;7.20;99.90
54930;DHT22;40833;53.238;6.576;2022-11-15T03:25:40;7.20;99.90
54930;DHT22;40833;53.238;6.576;2022-11-15T03:28:09;7.60;99.90
54930;DHT22;40833;53.238;6.576;2022-11-15T03:30:37;8.50;99.90
54930;DHT22;40833;53.238;6.576;2022-11-15T03:33:05;7.30;99.90
54930;DHT22;40833;53.238;6.576;2022-11-15T03:35:37;7.20;99.90
54930;DHT22;40833;53.238;6.576;2022-11-15T03:41:05;7.30;99.90
54930;DHT22;40833;53.238;6.576;2022-11-15T03:43:41;7.30;99.90
54930;DHT22;40833;53.238;6.576;2022-11-15T03:46:21;7.30;99.90
54930;DHT22;40833;53.238;6.576;2022-11-15T03:48:53;7.30;99.90
54930;DHT22;40833;53.238;6.576;2022-11-15T03:51:20;7.30;99.90
54930;DHT22;40833;53.238;6.576;2022-11-15T03:53:46;7.30;99.90
54930;DHT22;40833;53.238;6.576;2022-11-15T03:56:12;8.00;99.90
54930;DHT22;40833;53.238;6.576;2022-11-15T03:58:37;7.40;99.90
54930;DHT22;40833;53.238;6.576;2022-11-15T04:01:03;7.90;99.90
54930;DHT22;40833;53.238;6.576;2022-11-15T04:03:29;7.40;99.90
54930;DHT22;40833;53.238;6.576;2022-11-15T04:05:54;7.70;99.90
54930;DHT22;40833;53.238;6.576;2022-11-15T04:08:20;7.40;99.90
54930;DHT22;40833;53.238;6.576;2022-11-15T04:10:49;7.70;99.90
54930;DHT22;40833;53.238;6.576;2022-11-15T04:13:14;7.70;99.90
54930;DHT22;40833;53.238;6.576;2022-11-15T04:15:40;7.40;99.90
54930;DHT22;40833;53.238;6.576;2022-11-15T04:18:06;7.50;99.90
54930;DHT22;40833;53.238;6.576;2022-11-15T04:20:32;7.50;99.90
54930;DHT22;40833;53.238;6.576;2022-11-15T04:23:18;7.50;99.90
54930;DHT22;40833;53.238;6.576;2022-11-15T04:26:05;7.50;99.90
54930;DHT22;40833;53.238;6.576;2022-11-15T04:28:32;7.50;99.90
54930;DHT22;40833;53.238;6.576;2022-11-15T04:30:58;7.50;99.90
54930;DHT22;40833;53.238;6.576;2022-11-15T04:33:24;7.50;99.90
54930;DHT22;40833;53.238;6.576;2022-11-15T04:35:50;7.60;99.90
54930;DHT22;40833;53.238;6.576;2022-11-15T04:38:35;7.40;99.90
54930;DHT22;40833;53.238;6.576;2022-11-15T04:41:01;7.60;99.90
54930;DHT22;40833;53.238;6.576;2022-11-15T04:43:28;7.60;99.90
54930;DHT22;40833;53.238;6.576;2022-11-15T04:45:53;7.60;99.90
54930;DHT22;40833;53.238;6.576;2022-11-15T04:48:19;7.60;99.90
54930;DHT22;40833;53.238;6.576;2022-11-15T04:50:47;8.70;99.90
54930;DHT22;40833;53.238;6.576;2022-11-15T04:53:12;8.00;99.90
54930;DHT22;40833;53.238;6.576;2022-11-15T04:55:38;7.70;99.90
54930;DHT22;40833;53.238;6.576;2022-11-15T04:58:03;7.70;99.90
54930;DHT22;40833;53.238;6.576;2022-11-15T05:00:30;7.70;99.90
54930;DHT22;40833;53.238;6.576;2022-11-15T05:02:56;8.30;99.90
54930;DHT22;40833;53.238;6.576;2022-11-15T05:05:41;8.40;99.90
54930;DHT22;40833;53.238;6.576;2022-11-15T05:08:06;8.00;99.90
54930;DHT22;40833;53.238;6.576;2022-11-15T05:10:32;7.80;99.90
54930;DHT22;40833;53.238;6.576;2022-11-15T05:12:57;8.00;99.90
54930;DHT22;40833;53.238;6.576;2022-11-15T05:15:23;8.90;99.90
54930;DHT22;40833;53.238;6.576;2022-11-15T05:17:49;8.40;99.90
54930;DHT22;40833;53.238;6.576;2022-11-15T05:20:14;7.80;99.90
54930;DHT22;40833;53.238;6.576;2022-11-15T05:22:40;7.80;99.90
54930;DHT22;40833;53.238;6.576;2022-11-15T05:25:06;8.40;99.90
54930;DHT22;40833;53.238;6.576;2022-11-15T05:27:33;7.90;99.90
54930;DHT22;40833;53.238;6.576;2022-11-15T05:29:59;7.90;99.90
54930;DHT22;40833;53.238;6.576;2022-11-15T05:32:25;7.90;99.90
54930;DHT22;40833;53.238;6.576;2022-11-15T05:34:51;7.90;99.90
54930;DHT22;40833;53.238;6.576;2022-11-15T05:37:17;8.00;99.90
54930;DHT22;40833;53.238;6.576;2022-11-15T05:39:43;8.40;99.90
54930;DHT22;40833;53.238;6.576;2022-11-15T05:42:14;8.30;99.90
54930;DHT22;40833;53.238;6.576;2022-11-15T05:44:43;8.00;99.90
54930;DHT22;40833;53.238;6.576;2022-11-15T05:47:14;8.10;99.90
54930;DHT22;40833;53.238;6.576;2022-11-15T05:49:42;8.00;99.90
54930;DHT22;40833;53.238;6.576;2022-11-15T05:52:12;9.10;99.90
54930;DHT22;40833;53.238;6.576;2022-11-15T05:54:38;8.10;99.90
54930;DHT22;40833;53.238;6.576;2022-11-15T05:57:04;8.70;99.90
54930;DHT22;40833;53.238;6.576;2022-11-15T05:59:31;8.20;99.90
54930;DHT22;40833;53.238;6.576;2022-11-15T06:01:57;8.10;99.90
54930;DHT22;40833;53.238;6.576;2022-11-15T06:04:23;8.30;99.90
54930;DHT22;40833;53.238;6.576;2022-11-15T06:06:49;8.20;99.90
54930;DHT22;40833;53.238;6.576;2022-11-15T06:09:14;8.30;99.90
54930;DHT22;40833;53.238;6.576;2022-11-15T06:11:40;8.30;99.90
54930;DHT22;40833;53.238;6.576;2022-11-15T06:14:06;6.30;99.90
54930;DHT22;40833;53.238;6.576;2022-11-15T06:16:31;10.10;99.90
54930;DHT22;40833;53.238;6.576;2022-11-15T06:18:57;8.70;99.90
54930;DHT22;40833;53.238;6.576;2022-11-15T06:21:23;8.40;99.90
54930;DHT22;40833;53.238;6.576;2022-11-15T06:23:48;10.70;99.90
54930;DHT22;40833;53.238;6.576;2022-11-15T06:26:14;10.80;99.90
54930;DHT22;40833;53.238;6.576;2022-11-15T06:28:39;8.50;99.90
54930;DHT22;40833;53.238;6.576;2022-11-15T06:31:07;8.60;99.90
54930;DHT22;40833;53.238;6.576;2022-11-15T06:33:33;8.60;99.90
54930;DHT22;40833;53.238;6.576;2022-11-15T06:36:03;8.90;99.90
54930;DHT22;40833;53.238;6.576;2022-11-15T06:38:29;8.60;99.90
54930;DHT22;40833;53.238;6.576;2022-11-15T06:41:01;11.40;99.90
54930;DHT22;40833;53.238;6.576;2022-11-15T06:43:27;9.00;99.90
54930;DHT22;40833;53.238;6.576;2022-11-15T06:45:53;8.90;99.90
54930;DHT22;40833;53.238;6.576;2022-11-15T06:48:18;9.50;99.90
54930;DHT22;40833;53.238;6.576;2022-11-15T06:50:53;9.40;99.90
54930;DHT22;40833;53.238;6.576;2022-11-15T06:53:19;8.70;99.90
54930;DHT22;40833;53.238;6.576;2022-11-15T06:55:45;8.80;99.90
54930;DHT22;40833;53.238;6.576;2022-11-15T06:58:11;8.80;99.90
54930;DHT22;40833;53.238;6.576;2022-11-15T07:00:36;8.90;99.90
54930;DHT22;40833;53.238;6.576;2022-11-15T07:03:02;8.90;99.90
54930;DHT22;40833;53.238;6.576;2022-11-15T07:05:29;9.00;99.90
54930;DHT22;40833;53.238;6.576;2022-11-15T07:07:56;9.70;99.90
54930;DHT22;40833;53.238;6.576;2022-11-15T07:10:23;9.10;99.90
54930;DHT22;40833;53.238;6.576;2022-11-15T07:12:52;9.10;99.90
54930;DHT22;40833;53.238;6.576;2022-11-15T07:15:19;9.10;99.90
54930;DHT22;40833;53.238;6.576;2022-11-15T07:17:46;9.20;99.90
54930;DHT22;40833;53.238;6.576;2022-11-15T07:20:13;10.50;99.90
54930;DHT22;40833;53.238;6.576;2022-11-15T07:22:42;9.50;99.90
54930;DHT22;40833;53.238;6.576;2022-11-15T07:25:10;9.30;99.90
54930;DHT22;40833;53.238;6.576;2022-11-15T07:27:37;9.30;99.90
54930;DHT22;40833;53.238;6.576;2022-11-15T07:30:03;9.40;99.90
54930;DHT22;40833;53.238;6.576;2022-11-15T07:32:29;9.40;99.90
54930;DHT22;40833;53.238;6.576;2022-11-15T07:34:54;9.40;99.90
54930;DHT22;40833;53.238;6.576;2022-11-15T07:37:20;9.80;99.90
54930;DHT22;40833;53.238;6.576;2022-11-15T07:39:46;9.50;99.90
54930;DHT22;40833;53.238;6.576;2022-11-15T07:42:11;9.50;99.90
54930;DHT22;40833;53.238;6.576;2022-11-15T07:44:56;9.50;99.90
54930;DHT22;40833;53.238;6.576;2022-11-15T07:47:21;10.50;99.90
54930;DHT22;40833;53.238;6.576;2022-11-15T07:49:47;9.60;99.90
54930;DHT22;40833;53.238;6.576;2022-11-15T07:52:13;9.60;99.90
54930;DHT22;40833;53.238;6.576;2022-11-15T07:54:39;9.70;99.90
54930;DHT22;40833;53.238;6.576;2022-11-15T07:57:05;9.60;99.90
54930;DHT22;40833;53.238;6.576;2022-11-15T07:59:32;9.70;99.90
54930;DHT22;40833;53.238;6.576;2022-11-15T08:01:58;9.70;99.90
54930;DHT22;40833;53.238;6.576;2022-11-15T08:04:23;11.30;99.90
54930;DHT22;40833;53.238;6.576;2022-11-15T08:06:49;9.70;99.90
54930;DHT22;40833;53.238;6.576;2022-11-15T08:09:15;9.80;99.90
54930;DHT22;40833;53.238;6.576;2022-11-15T08:11:40;10.10;99.90
54930;DHT22;40833;53.238;6.576;2022-11-15T08:14:06;9.80;99.90
54930;DHT22;40833;53.238;6.576;2022-11-15T08:16:32;9.90;99.90
54930;DHT22;40833;53.238;6.576;2022-11-15T08:18:58;9.90;99.90
54930;DHT22;40833;53.238;6.576;2022-11-15T08:21:24;9.90;99.90
54930;DHT22;40833;53.238;6.576;2022-11-15T08:23:49;10.00;99.90
54930;DHT22;40833;53.238;6.576;2022-11-15T08:26:15;10.00;99.90
54930;DHT22;40833;53.238;6.576;2022-11-15T08:28:41;10.20;99.90
54930;DHT22;40833;53.238;6.576;2022-11-15T08:31:13;10.10;99.90
54930;DHT22;40833;53.238;6.576;2022-11-15T08:33:39;10.20;99.90
54930;DHT22;40833;53.238;6.576;2022-11-15T08:36:05;10.20;99.90
54930;DHT22;40833;53.238;6.576;2022-11-15T08:38:31;10.40;99.90
54930;DHT22;40833;53.238;6.576;2022-11-15T08:41:02;10.20;99.90
54930;DHT22;40833;53.238;6.576;2022-11-15T08:43:28;10.30;99.90
54930;DHT22;40833;53.238;6.576;2022-11-15T08:45:57;10.40;99.90
54930;DHT22;40833;53.238;6.576;2022-11-15T08:48:23;10.40;99.90
54930;DHT22;40833;53.238;6.576;2022-11-15T08:50:48;10.40;99.90
54930;DHT22;40833;53.238;6.576;2022-11-15T08:53:14;10.50;99.90
54930;DHT22;40833;53.238;6.576;2022-11-15T08:55:40;10.50;99.90
54930;DHT22;40833;53.238;6.576;2022-11-15T08:58:06;10.50;99.90
54930;DHT22;40833;53.238;6.576;2022-11-15T09:00:32;10.50;99.90
54930;DHT22;40833;53.238;6.576;2022-11-15T09:02:58;10.50;99.90
54930;DHT22;40833;53.238;6.576;2022-11-15T09:05:25;10.60;99.90
54930;DHT22;40833;53.238;6.576;2022-11-15T09:07:54;10.50;99.90
54930;DHT22;40833;53.238;6.576;2022-11-15T09:10:21;10.60;99.90
54930;DHT22;40833;53.238;6.576;2022-11-15T09:12:46;10.70;99.90
54930;DHT22;40833;53.238;6.576;2022-11-15T09:15:15;11.50;99.90
54930;DHT22;40833;53.238;6.576;2022-11-15T09:17:41;10.80;99.90
54930;DHT22;40833;53.238;6.576;2022-11-15T09:20:07;10.90;99.90
54930;DHT22;40833;53.238;6.576;2022-11-15T09:22:33;10.90;99.90
54930;DHT22;40833;53.238;6.576;2022-11-15T09:24:59;11.00;99.90
54930;DHT22;40833;53.238;6.576;2022-11-15T09:27:29;11.20;99.90
54930;DHT22;40833;53.238;6.576;2022-11-15T09:29:55;11.10;99.90
54930;DHT22;40833;53.238;6.576;2022-11-15T09:32:21;11.10;99.90
54930;DHT22;40833;53.238;6.576;2022-11-15T09:34:51;11.10;99.90
54930;DHT22;40833;53.238;6.576;2022-11-15T09:37:17;11.10;99.90
54930;DHT22;40833;53.238;6.576;2022-11-15T09:39:43;11.20;99.90
54930;DHT22;40833;53.238;6.576;2022-11-15T09:50:44;11.40;99.90
54930;DHT22;40833;53.238;6.576;2022-11-15T09:53:14;11.60;99.90
54930;DHT22;40833;53.238;6.576;2022-11-15T09:55:59;11.40;99.90
54930;DHT22;40833;53.238;6.576;2022-11-15T10:04:07;11.50;99.90
54930;DHT22;40833;53.238;6.576;2022-11-15T10:06:38;11.50;99.90
54930;DHT22;40833;53.238;6.576;2022-11-15T10:09:28;11.50;99.90
54930;DHT22;40833;53.238;6.576;2022-11-15T10:11:55;11.50;99.90
54930;DHT22;40833;53.238;6.576;2022-11-15T10:14:22;11.50;99.90
54930;DHT22;40833;53.238;6.576;2022-11-15T10:24:44;11.50;99.90
54930;DHT22;40833;53.238;6.576;2022-11-15T10:27:16;11.50;99.90
54930;DHT22;40833;53.238;6.576;2022-11-15T10:29:49;11.60;99.90
54930;DHT22;40833;53.238;6.576;2022-11-15T10:32:18;11.60;99.90
54930;DHT22;40833;53.238;6.576;2022-11-15T10:34:44;11.60;99.90
54930;DHT22;40833;53.238;6.576;2022-11-15T10:37:10;11.60;99.90
54930;DHT22;40833;53.238;6.576;2022-11-15T10:39:36;11.70;99.90
54930;DHT22;40833;53.238;6.576;2022-11-15T10:42:25;11.90;99.90
54930;DHT22;40833;53.238;6.576;2022-11-15T10:44:51;11.90;99.90
54930;DHT22;40833;53.238;6.576;2022-11-15T10:47:21;11.80;99.90
54930;DHT22;40833;53.238;6.576;2022-11-15T10:50:24;11.70;99.90
54930;DHT22;40833;53.238;6.576;2022-11-15T10:52:52;11.80;99.90
54930;DHT22;40833;53.238;6.576;2022-11-15T10:57:50;11.90;99.90
54930;DHT22;40833;53.238;6.576;2022-11-15T11:03:27;11.80;99.90
54930;DHT22;40833;53.238;6.576;2022-11-15T11:06:15;12.30;99.90
54930;DHT22;40833;53.238;6.576;2022-11-15T11:08:56;11.80;99.90
54930;DHT22;40833;53.238;6.576;2022-11-15T11:11:23;11.80;99.90
54930;DHT22;40833;53.238;6.576;2022-11-15T11:13:49;11.80;99.90
54930;DHT22;40833;53.238;6.576;2022-11-15T11:19:18;11.80;99.90
54930;DHT22;40833;53.238;6.576;2022-11-15T11:30:09;11.80;99.90
54930;DHT22;40833;53.238;6.576;2022-11-15T11:33:05;11.90;99.90
54930;DHT22;40833;53.238;6.576;2022-11-15T11:38:50;12.00;99.90
54930;DHT22;40833;53.238;6.576;2022-11-15T11:44:30;12.20;99.90
54930;DHT22;40833;53.238;6.576;2022-11-15T11:47:09;12.20;99.90
54930;DHT22;40833;53.238;6.576;2022-11-15T11:50:00;12.30;99.90
54930;DHT22;40833;53.238;6.576;2022-11-15T11:55:31;12.30;99.90
54930;DHT22;40833;53.238;6.576;2022-11-15T11:58:14;12.50;99.90
54930;DHT22;40833;53.238;6.576;2022-11-15T12:00:54;12.60;99.90
54930;DHT22;40833;53.238;6.576;2022-11-15T12:03:45;12.50;99.90
54930;DHT22;40833;53.238;6.576;2022-11-15T12:06:35;12.50;99.90
54930;DHT22;40833;53.238;6.576;2022-11-15T12:15:11;12.40;99.90
54930;DHT22;40833;53.238;6.576;2022-11-15T12:17:40;12.70;99.90
54930;DHT22;40833;53.238;6.576;2022-11-15T12:20:24;12.30;99.90
54930;DHT22;40833;53.238;6.576;2022-11-15T12:31:23;12.30;99.90
54930;DHT22;40833;53.238;6.576;2022-11-15T12:33:55;12.40;99.90
54930;DHT22;40833;53.238;6.576;2022-11-15T12:39:00;12.20;99.90
54930;DHT22;40833;53.238;6.576;2022-11-15T12:41:34;12.20;99.90
54930;DHT22;40833;53.238;6.576;2022-11-15T12:44:01;12.20;99.90
54930;DHT22;40833;53.238;6.576;2022-11-15T12:59:47;12.20;99.90
54930;DHT22;40833;53.238;6.576;2022-11-15T13:02:25;12.30;99.90
54930;DHT22;40833;53.238;6.576;2022-11-15T13:04:54;12.20;99.90
54930;DHT22;40833;53.238;6.576;2022-11-15T13:12:57;12.40;99.90
54930;DHT22;40833;53.238;6.576;2022-11-15T13:15:34;12.40;99.90
54930;DHT22;40833;53.238;6.576;2022-11-15T13:18:26;12.50;99.90
54930;DHT22;40833;53.238;6.576;2022-11-15T13:20:53;12.70;99.90
54930;DHT22;40833;53.238;6.576;2022-11-15T13:23:18;12.80;99.90
54930;DHT22;40833;53.238;6.576;2022-11-15T13:28:49;12.90;99.90
54930;DHT22;40833;53.238;6.576;2022-11-15T13:31:37;13.20;99.90
54930;DHT22;40833;53.238;6.576;2022-11-15T13:34:32;12.90;99.90
54930;DHT22;40833;53.238;6.576;2022-11-15T13:36:59;12.80;99.90
54930;DHT22;40833;53.238;6.576;2022-11-15T13:39:31;12.70;99.90
54930;DHT22;40833;53.238;6.576;2022-11-15T13:41:58;12.70;99.90
54930;DHT22;40833;53.238;6.576;2022-11-15T13:44:29;12.70;99.90
54930;DHT22;40833;53.238;6.576;2022-11-15T13:47:14;12.70;99.90
54930;DHT22;40833;53.238;6.576;2022-11-15T13:49:40;12.60;99.90
54930;DHT22;40833;53.238;6.576;2022-11-15T13:52:09;12.60;99.90
54930;DHT22;40833;53.238;6.576;2022-11-15T13:54:56;12.70;99.90
54930;DHT22;40833;53.238;6.576;2022-11-15T13:57:30;12.60;99.90
54930;DHT22;40833;53.238;6.576;2022-11-15T14:00:02;12.60;99.90
54930;DHT22;40833;53.238;6.576;2022-11-15T14:02:38;12.60;99.90
54930;DHT22;40833;53.238;6.576;2022-11-15T14:05:17;12.60;99.90
54930;DHT22;40833;53.238;6.576;2022-11-15T14:10:34;12.60;99.90
54930;DHT22;40833;53.238;6.576;2022-11-15T14:13:00;12.60;99.90
54930;DHT22;40833;53.238;6.576;2022-11-15T14:15:39;12.90;99.90
54930;DHT22;40833;53.238;6.576;2022-11-15T14:18:05;12.60;99.90
54930;DHT22;40833;53.238;6.576;2022-11-15T14:20:33;12.60;99.90
54930;DHT22;40833;53.238;6.576;2022-11-15T14:23:05;12.50;99.90
54930;DHT22;40833;53.238;6.576;2022-11-15T14:25:32;12.40;99.90
54930;DHT22;40833;53.238;6.576;2022-11-15T14:30:48;12.20;99.90
54930;DHT22;40833;53.238;6.576;2022-11-15T14:33:20;12.10;99.90
54930;DHT22;40833;53.238;6.576;2022-11-15T14:35:46;12.10;99.90
54930;DHT22;40833;53.238;6.576;2022-11-15T14:38:12;12.00;99.90
54930;DHT22;40833;53.238;6.576;2022-11-15T14:40:38;12.20;99.90
54930;DHT22;40833;53.238;6.576;2022-11-15T14:43:03;11.70;99.90
54930;DHT22;40833;53.238;6.576;2022-11-15T14:45:29;11.70;99.90
54930;DHT22;40833;53.238;6.576;2022-11-15T14:47:55;11.60;99.90
54930;DHT22;40833;53.238;6.576;2022-11-15T14:50:21;11.40;99.90
54930;DHT22;40833;53.238;6.576;2022-11-15T14:52:47;11.40;99.90
54930;DHT22;40833;53.238;6.576;2022-11-15T14:55:20;11.30;99.90
54930;DHT22;40833;53.238;6.576;2022-11-15T14:57:47;11.20;99.90
54930;DHT22;40833;53.238;6.576;2022-11-15T15:00:13;11.10;99.90
54930;DHT22;40833;53.238;6.576;2022-11-15T15:02:40;11.10;99.90
54930;DHT22;40833;53.238;6.576;2022-11-15T15:05:21;11.10;99.90
54930;DHT22;40833;53.238;6.576;2022-11-15T15:07:49;11.00;99.90
54930;DHT22;40833;53.238;6.576;2022-11-15T15:10:16;10.90;99.90
54930;DHT22;40833;53.238;6.576;2022-11-15T15:12:42;10.90;99.90
54930;DHT22;40833;53.238;6.576;2022-11-15T15:15:37;11.00;99.90
54930;DHT22;40833;53.238;6.576;2022-11-15T15:18:05;10.80;99.90
54930;DHT22;40833;53.238;6.576;2022-11-15T15:20:32;10.60;99.90
54930;DHT22;40833;53.238;6.576;2022-11-15T15:22:57;10.60;99.90
54930;DHT22;40833;53.238;6.576;2022-11-15T15:25:33;10.70;99.90
54930;DHT22;40833;53.238;6.576;2022-11-15T15:28:00;10.50;99.90
54930;DHT22;40833;53.238;6.576;2022-11-15T15:30:28;10.40;99.90
54930;DHT22;40833;53.238;6.576;2022-11-15T15:32:54;10.30;99.90
54930;DHT22;40833;53.238;6.576;2022-11-15T15:35:20;10.20;99.90
54930;DHT22;40833;53.238;6.576;2022-11-15T15:37:47;10.50;99.90
54930;DHT22;40833;53.238;6.576;2022-11-15T15:40:19;10.10;99.90
54930;DHT22;40833;53.238;6.576;2022-11-15T15:42:46;10.10;99.90
54930;DHT22;40833;53.238;6.576;2022-11-15T15:45:12;10.00;99.90
54930;DHT22;40833;53.238;6.576;2022-11-15T15:47:38;10.00;99.90
54930;DHT22;40833;53.238;6.576;2022-11-15T15:50:22;9.90;99.90
54930;DHT22;40833;53.238;6.576;2022-11-15T15:52:50;9.90;99.90
54930;DHT22;40833;53.238;6.576;2022-11-15T15:55:16;9.90;99.90
54930;DHT22;40833;53.238;6.576;2022-11-15T15:57:42;9.80;99.90
54930;DHT22;40833;53.238;6.576;2022-11-15T16:00:09;9.80;99.90
54930;DHT22;40833;53.238;6.576;2022-11-15T16:02:35;9.80;99.90
54930;DHT22;40833;53.238;6.576;2022-11-15T16:05:01;9.80;99.90
54930;DHT22;40833;53.238;6.576;2022-11-15T16:07:26;9.80;99.90
54930;DHT22;40833;53.238;6.576;2022-11-15T16:09:55;9.70;99.90
54930;DHT22;40833;53.238;6.576;2022-11-15T16:12:35;9.80;99.90
54930;DHT22;40833;53.238;6.576;2022-11-15T16:15:02;9.70;99.90
54930;DHT22;40833;53.238;6.576;2022-11-15T16:17:37;9.70;99.90
54930;DHT22;40833;53.238;6.576;2022-11-15T16:20:04;9.60;99.90
54930;DHT22;40833;53.238;6.576;2022-11-15T16:22:30;9.60;99.90
54930;DHT22;40833;53.238;6.576;2022-11-15T16:24:56;9.60;99.90
54930;DHT22;40833;53.238;6.576;2022-11-15T16:27:22;9.50;99.90
54930;DHT22;40833;53.238;6.576;2022-11-15T16:29:48;9.50;99.90
54930;DHT22;40833;53.238;6.576;2022-11-15T16:32:14;10.00;99.90
54930;DHT22;40833;53.238;6.576;2022-11-15T16:34:40;9.70;99.90
54930;DHT22;40833;53.238;6.576;2022-11-15T16:37:20;9.50;99.90
54930;DHT22;40833;53.238;6.576;2022-11-15T16:39:46;9.50;99.90
54930;DHT22;40833;53.238;6.576;2022-11-15T16:42:12;10.40;99.90
54930;DHT22;40833;53.238;6.576;2022-11-15T16:44:38;9.50;99.90
54930;DHT22;40833;53.238;6.576;2022-11-15T16:47:03;9.50;99.90
54930;DHT22;40833;53.238;6.576;2022-11-15T16:49:29;9.50;99.90
54930;DHT22;40833;53.238;6.576;2022-11-15T16:51:55;9.60;99.90
54930;DHT22;40833;53.238;6.576;2022-11-15T16:54:20;9.70;99.90
54930;DHT22;40833;53.238;6.576;2022-11-15T16:56:46;9.70;99.90
54930;DHT22;40833;53.238;6.576;2022-11-15T16:59:16;9.80;99.90
54930;DHT22;40833;53.238;6.576;2022-11-15T17:01:43;9.90;99.90
54930;DHT22;40833;53.238;6.576;2022-11-15T17:04:18;10.10;99.90
54930;DHT22;40833;53.238;6.576;2022-11-15T17:06:46;10.00;99.90
54930;DHT22;40833;53.238;6.576;2022-11-15T17:09:22;10.00;99.90
54930;DHT22;40833;53.238;6.576;2022-11-15T17:11:51;10.20;99.90
54930;DHT22;40833;53.238;6.576;2022-11-15T17:14:17;10.10;99.90
54930;DHT22;40833;53.238;6.576;2022-11-15T17:16:43;10.20;99.90
54930;DHT22;40833;53.238;6.576;2022-11-15T17:19:13;10.60;99.90
54930;DHT22;40833;53.238;6.576;2022-11-15T17:21:40;10.20;99.90
54930;DHT22;40833;53.238;6.576;2022-11-15T17:24:06;10.20;99.90
54930;DHT22;40833;53.238;6.576;2022-11-15T17:26:32;10.20;99.90
54930;DHT22;40833;53.238;6.576;2022-11-15T17:28:58;10.30;99.90
54930;DHT22;40833;53.238;6.576;2022-11-15T17:31:26;10.20;99.90
54930;DHT22;40833;53.238;6.576;2022-11-15T17:33:52;10.20;99.90
54930;DHT22;40833;53.238;6.576;2022-11-15T17:36:18;10.20;99.90
54930;DHT22;40833;53.238;6.576;2022-11-15T17:38:44;10.30;99.90
54930;DHT22;40833;53.238;6.576;2022-11-15T17:41:15;10.40;99.90
54930;DHT22;40833;53.238;6.576;2022-11-15T17:43:41;8.50;99.90
54930;DHT22;40833;53.238;6.576;2022-11-15T17:46:13;10.20;99.90